Time;durP1;ratioP1;P1;durP2;ratioP2;P2;SDS_P1;SDS_P2;PMS_P1;PMS_P2;Temp;Humidity;BMP_temperature;BMP_pressure;BME280_temperature;BME280_humidity;BME280_pressure;Samples;Min_cycle;Max_cycle;Signal;HPM_P1;HPM_P2
2022/04/17 00:02:02;;;;;;;;;;;5.40;77.30;;;;;;5084692;28;19912;-69
2022/04/17 00:04:28;;;;;;;;;;;5.30;77.80;;;;;;5084968;28;20065;-69
2022/04/17 00:06:53;;;;;;;;;;;5.30;77.50;;;;;;5067091;28;19920;-69
2022/04/17 00:09:19;;;;;;;;;;;5.30;77.60;;;;;;5084872;28;19908;-69
2022/04/17 00:11:45;;;;;;;;;;;5.30;77.30;;;;;;5084520;28;19916;-69
2022/04/17 00:14:11;;;;;;;;;;;5.30;77.80;;;;;;5084642;28;19919;-69
2022/04/17 00:16:37;;;;;;;;;;;5.20;77.90;;;;;;5084391;28;19908;-69
2022/04/17 00:19:02;;;;;;;;;;;5.30;77.80;;;;;;5084611;28;19954;-69
2022/04/17 00:21:28;;;;;;;;;;;5.20;78.30;;;;;;5084375;28;19943;-69
2022/04/17 00:23:54;;;;;;;;;;;5.10;78.60;;;;;;5084370;28;19913;-68
2022/04/17 00:26:19;;;;;;;;;;;5.10;78.60;;;;;;5084478;28;19915;-69
2022/04/17 00:28:45;;;;;;;;;;;5.00;78.70;;;;;;5084565;28;19980;-68
2022/04/17 00:31:11;;;;;;;;;;;5.10;79.00;;;;;;5083842;28;19908;-69
2022/04/17 00:33:37;;;;;;;;;;;5.00;79.20;;;;;;5084308;28;19912;-69
2022/04/17 00:36:02;;;;;;;;;;;5.00;79.30;;;;;;5084418;28;19909;-69
2022/04/17 00:38:28;;;;;;;;;;;5.00;79.70;;;;;;5084284;28;20349;-69
2022/04/17 00:40:54;;;;;;;;;;;5.00;79.80;;;;;;5084235;28;19924;-69
2022/04/17 00:43:30;;;;;;;;;;;5.00;80.10;;;;;;5084200;28;19921;-69
2022/04/17 00:45:56;;;;;;;;;;;5.00;80.00;;;;;;5084058;28;19971;-68
2022/04/17 00:48:22;;;;;;;;;;;5.00;80.40;;;;;;5084407;28;19935;-69
2022/04/17 00:50:48;;;;;;;;;;;4.90;81.10;;;;;;5083889;28;20175;-69
2022/04/17 00:53:14;;;;;;;;;;;4.80;80.80;;;;;;5066299;28;19924;-69
2022/04/17 00:55:40;;;;;;;;;;;4.70;81.10;;;;;;5084165;28;19935;-69
2022/04/17 00:58:06;;;;;;;;;;;4.70;81.30;;;;;;5084063;28;20012;-69
2022/04/17 01:00:34;;;;;;;;;;;4.70;81.60;;;;;;5083655;28;19908;-69
2022/04/17 01:03:00;;;;;;;;;;;4.70;81.50;;;;;;5083820;28;19909;-69
2022/04/17 01:05:26;;;;;;;;;;;4.70;81.60;;;;;;5066112;28;19915;-69
2022/04/17 01:07:52;;;;;;;;;;;4.60;81.90;;;;;;5066026;28;19909;-69
2022/04/17 01:10:18;;;;;;;;;;;4.60;81.90;;;;;;5066293;28;19919;-69
2022/04/17 01:12:44;;;;;;;;;;;4.60;82.50;;;;;;5083662;28;19912;-68
2022/04/17 01:15:10;;;;;;;;;;;4.60;83.00;;;;;;5083621;28;19914;-69
2022/04/17 01:17:36;;;;;;;;;;;4.50;83.70;;;;;;5083827;28;19944;-69
2022/04/17 01:20:02;;;;;;;;;;;4.50;84.50;;;;;;5083552;28;19908;-69
2022/04/17 01:22:28;;;;;;;;;;;4.40;85.30;;;;;;5083476;28;19992;-69
2022/04/17 01:27:38;;;;;;;;;;;4.30;86.00;;;;;;5083578;28;20181;-69
2022/04/17 01:30:04;;;;;;;;;;;4.30;86.00;;;;;;5083170;28;19908;-68
2022/04/17 01:32:30;;;;;;;;;;;4.30;86.10;;;;;;5082992;28;20146;-69
2022/04/17 01:34:55;;;;;;;;;;;4.20;86.50;;;;;;5065319;28;20283;-69
2022/04/17 01:37:21;;;;;;;;;;;4.20;86.70;;;;;;5083228;28;19979;-68
2022/04/17 01:39:47;;;;;;;;;;;4.20;86.70;;;;;;5083205;28;19909;-69
2022/04/17 01:42:12;;;;;;;;;;;4.20;87.00;;;;;;5082737;28;19984;-69
2022/04/17 01:44:38;;;;;;;;;;;4.20;86.90;;;;;;5082819;28;19961;-68
2022/04/17 01:47:04;;;;;;;;;;;4.20;86.50;;;;;;5083043;28;20111;-69
2022/04/17 01:49:30;;;;;;;;;;;4.10;86.80;;;;;;5082370;28;19908;-69
2022/04/17 01:51:56;;;;;;;;;;;4.00;87.40;;;;;;5082661;28;19970;-68
2022/04/17 01:54:23;;;;;;;;;;;4.10;87.40;;;;;;5064523;28;19917;-69
2022/04/17 01:56:49;;;;;;;;;;;4.10;87.20;;;;;;5082876;28;19931;-69
2022/04/17 01:59:18;;;;;;;;;;;4.10;87.30;;;;;;5082888;28;19920;-69
2022/04/17 02:01:44;;;;;;;;;;;4.00;87.70;;;;;;5082176;28;19940;-68
2022/04/17 02:04:10;;;;;;;;;;;3.90;87.90;;;;;;5064716;28;19935;-69
2022/04/17 02:06:35;;;;;;;;;;;3.80;88.70;;;;;;5082629;28;19972;-69
2022/04/17 02:09:01;;;;;;;;;;;3.70;89.10;;;;;;5082653;28;19908;-68
2022/04/17 02:11:27;;;;;;;;;;;3.70;89.50;;;;;;5082233;28;20115;-68
2022/04/17 02:13:53;;;;;;;;;;;3.80;89.30;;;;;;5082445;28;19912;-68
2022/04/17 02:16:19;;;;;;;;;;;3.70;89.50;;;;;;5064373;28;19908;-68
2022/04/17 02:18:45;;;;;;;;;;;3.70;90.20;;;;;;5064529;28;19916;-69
2022/04/17 02:21:13;;;;;;;;;;;3.60;90.20;;;;;;5082053;28;20058;-68
2022/04/17 02:23:40;;;;;;;;;;;3.60;90.10;;;;;;5082053;28;20226;-69
2022/04/17 02:26:06;;;;;;;;;;;3.60;90.20;;;;;;5082299;28;20035;-69
2022/04/17 02:28:35;;;;;;;;;;;3.60;90.10;;;;;;5082247;28;20206;-68
2022/04/17 02:31:02;;;;;;;;;;;3.50;90.20;;;;;;5081531;28;20218;-69
2022/04/17 02:33:28;;;;;;;;;;;3.60;90.40;;;;;;5063938;28;19912;-68
2022/04/17 02:35:54;;;;;;;;;;;3.50;90.50;;;;;;5082108;28;19915;-69
2022/04/17 02:38:19;;;;;;;;;;;3.50;90.30;;;;;;5082085;28;19946;-69
2022/04/17 02:40:45;;;;;;;;;;;3.50;90.20;;;;;;5081776;28;19908;-69
2022/04/17 02:43:11;;;;;;;;;;;3.50;90.10;;;;;;5081955;28;19909;-68
2022/04/17 02:45:37;;;;;;;;;;;3.50;90.50;;;;;;5081715;28;19931;-68
2022/04/17 02:48:03;;;;;;;;;;;3.40;90.70;;;;;;5082094;28;19999;-68
2022/04/17 02:50:29;;;;;;;;;;;3.40;90.90;;;;;;5082139;28;20064;-69
2022/04/17 02:52:55;;;;;;;;;;;3.40;90.90;;;;;;5081737;28;19947;-66
2022/04/17 02:55:21;;;;;;;;;;;3.40;91.10;;;;;;5064010;28;20126;-69
2022/04/17 02:57:48;;;;;;;;;;;3.30;91.20;;;;;;5082048;28;19909;-69
2022/04/17 03:00:14;;;;;;;;;;;3.20;91.50;;;;;;5080750;28;19914;-68
2022/04/17 03:05:36;;;;;;;;;;;3.30;91.80;;;;;;5082039;28;19953;-68
2022/04/17 03:08:15;;;;;;;;;;;3.30;91.40;;;;;;5081836;28;19992;-69
2022/04/17 03:10:42;;;;;;;;;;;3.40;91.20;;;;;;5065486;28;19979;-69
2022/04/17 03:13:08;;;;;;;;;;;3.30;91.20;;;;;;5081625;28;19987;-69
2022/04/17 03:15:37;;;;;;;;;;;3.20;91.40;;;;;;5081584;28;20231;-69
2022/04/17 03:18:04;;;;;;;;;;;3.20;91.30;;;;;;5081624;28;19908;-68
2022/04/17 03:20:30;;;;;;;;;;;3.20;91.40;;;;;;5081704;28;19908;-69
2022/04/17 03:22:56;;;;;;;;;;;3.20;91.30;;;;;;5081304;28;19913;-68
2022/04/17 03:25:21;;;;;;;;;;;3.20;91.30;;;;;;5081550;28;20196;-69
2022/04/17 03:27:47;;;;;;;;;;;3.20;91.30;;;;;;5081621;28;19908;-68
2022/04/17 03:30:15;;;;;;;;;;;3.20;91.20;;;;;;5081463;28;20096;-68
2022/04/17 03:32:44;;;;;;;;;;;3.10;91.20;;;;;;5081169;28;19923;-69
2022/04/17 03:35:14;;;;;;;;;;;3.00;91.50;;;;;;5063842;28;19973;-69
2022/04/17 03:37:42;;;;;;;;;;;3.00;91.50;;;;;;5081485;28;19916;-69
2022/04/17 03:40:08;;;;;;;;;;;2.90;91.70;;;;;;5081492;28;19915;-69
2022/04/17 03:42:35;;;;;;;;;;;2.90;91.80;;;;;;5081195;28;19908;-68
2022/04/17 03:45:08;;;;;;;;;;;2.80;91.80;;;;;;5081137;28;20089;-69
2022/04/17 03:47:34;;;;;;;;;;;2.80;91.90;;;;;;5081478;28;19908;-69
2022/04/17 03:50:00;;;;;;;;;;;2.70;92.20;;;;;;5081475;28;20111;-68
2022/04/17 03:52:26;;;;;;;;;;;2.70;92.10;;;;;;5080915;28;19917;-68
2022/04/17 03:54:51;;;;;;;;;;;2.60;92.40;;;;;;5081412;28;20203;-68
2022/04/17 03:57:17;;;;;;;;;;;2.60;92.40;;;;;;5081286;28;19915;-69
2022/04/17 03:59:43;;;;;;;;;;;2.60;92.60;;;;;;5081418;28;20328;-68
2022/04/17 04:02:09;;;;;;;;;;;2.60;92.50;;;;;;5080650;28;19995;-68
2022/04/17 04:04:35;;;;;;;;;;;2.60;92.40;;;;;;5081149;28;20260;-69
2022/04/17 04:07:01;;;;;;;;;;;2.50;92.70;;;;;;5081202;28;20143;-68
2022/04/17 04:09:27;;;;;;;;;;;2.60;92.40;;;;;;5081197;28;19908;-69
2022/04/17 04:11:52;;;;;;;;;;;2.60;92.30;;;;;;5082151;28;19909;-68
2022/04/17 04:14:18;;;;;;;;;;;2.50;92.50;;;;;;5084739;28;19912;-68
2022/04/17 04:16:44;;;;;;;;;;;2.40;92.50;;;;;;5084453;28;20170;-69
2022/04/17 04:19:10;;;;;;;;;;;2.40;92.60;;;;;;5084752;28;19920;-68
2022/04/17 04:21:47;;;;;;;;;;;2.40;92.80;;;;;;5066615;28;19908;-69
2022/04/17 04:24:17;;;;;;;;;;;2.40;92.70;;;;;;5084462;28;19987;-68
2022/04/17 04:26:43;;;;;;;;;;;2.30;92.70;;;;;;5084631;28;19908;-68
2022/04/17 04:29:08;;;;;;;;;;;2.40;92.80;;;;;;5084517;28;20153;-69
2022/04/17 04:31:34;;;;;;;;;;;2.30;92.80;;;;;;5083931;28;19909;-69
2022/04/17 04:34:00;;;;;;;;;;;2.30;92.90;;;;;;5084088;28;19912;-69
2022/04/17 04:36:26;;;;;;;;;;;2.20;92.90;;;;;;5084341;28;19980;-69
2022/04/17 04:38:51;;;;;;;;;;;2.20;93.10;;;;;;5084363;28;19912;-68
2022/04/17 04:41:17;;;;;;;;;;;2.20;93.00;;;;;;5084009;28;19975;-68
2022/04/17 04:43:43;;;;;;;;;;;2.20;93.00;;;;;;5084171;28;20149;-69
2022/04/17 04:46:09;;;;;;;;;;;2.20;93.00;;;;;;5083785;28;19917;-68
2022/04/17 04:51:23;;;;;;;;;;;2.30;93.00;;;;;;5065103;28;19923;-66
2022/04/17 04:53:49;;;;;;;;;;;2.20;93.00;;;;;;5072578;28;19912;-67
2022/04/17 04:56:16;;;;;;;;;;;2.20;93.10;;;;;;5066183;28;19921;-69
2022/04/17 04:58:42;;;;;;;;;;;2.20;93.10;;;;;;5049358;28;20041;-67
2022/04/17 05:01:08;;;;;;;;;;;2.20;93.10;;;;;;5065307;28;20223;-68
2022/04/17 05:03:34;;;;;;;;;;;2.20;93.20;;;;;;5083669;28;19979;-68
2022/04/17 05:05:59;;;;;;;;;;;2.20;93.10;;;;;;5083691;28;19908;-69
2022/04/17 05:08:25;;;;;;;;;;;2.30;93.20;;;;;;5065815;28;19915;-68
2022/04/17 05:10:51;;;;;;;;;;;2.30;93.20;;;;;;5083206;28;20241;-69
2022/04/17 05:13:17;;;;;;;;;;;2.40;93.00;;;;;;5065522;28;19912;-69
2022/04/17 05:15:42;;;;;;;;;;;2.40;93.00;;;;;;5083185;28;20443;-69
2022/04/17 05:18:08;;;;;;;;;;;2.40;92.90;;;;;;5083555;28;19908;-70
2022/04/17 05:20:34;;;;;;;;;;;2.50;92.90;;;;;;5083246;28;19909;-69
2022/04/17 05:23:33;;;;;;;;;;;2.60;92.70;;;;;;5078601;28;19936;-70
2022/04/17 05:26:09;;;;;;;;;;;2.60;92.50;;;;;;5078669;28;19908;-65
2022/04/17 05:28:35;;;;;;;;;;;2.70;92.60;;;;;;5083280;28;19909;-66
2022/04/17 05:31:01;;;;;;;;;;;2.90;92.20;;;;;;5082568;28;20146;-66
2022/04/17 05:33:27;;;;;;;;;;;2.90;91.90;;;;;;5083037;28;19957;-70
2022/04/17 05:35:52;;;;;;;;;;;3.00;91.90;;;;;;5082788;28;19909;-68
2022/04/17 05:38:20;;;;;;;;;;;3.10;91.50;;;;;;5082792;28;19916;-69
2022/04/17 05:40:50;;;;;;;;;;;3.10;91.50;;;;;;5064845;28;19908;-69
2022/04/17 05:43:16;;;;;;;;;;;3.10;91.50;;;;;;5082473;28;20097;-68
2022/04/17 05:45:42;;;;;;;;;;;3.00;91.60;;;;;;5082341;28;19908;-69
2022/04/17 05:48:09;;;;;;;;;;;3.20;91.70;;;;;;5082389;28;20174;-69
2022/04/17 05:50:35;;;;;;;;;;;3.30;91.60;;;;;;5064477;28;19915;-69
2022/04/17 05:53:00;;;;;;;;;;;3.30;91.40;;;;;;5081788;28;19912;-67
2022/04/17 05:55:27;;;;;;;;;;;3.40;91.10;;;;;;5081640;28;19953;-69
2022/04/17 05:57:52;;;;;;;;;;;3.40;91.20;;;;;;5063844;28;19908;-67
2022/04/17 06:00:18;;;;;;;;;;;3.50;91.00;;;;;;5081364;28;19916;-69
2022/04/17 06:02:46;;;;;;;;;;;3.60;90.70;;;;;;5064357;28;20230;-69
2022/04/17 06:05:12;;;;;;;;;;;3.60;90.70;;;;;;5082186;28;20130;-69
2022/04/17 06:07:39;;;;;;;;;;;3.70;90.50;;;;;;5082329;28;19908;-69
2022/04/17 06:10:06;;;;;;;;;;;3.90;90.00;;;;;;5082299;28;19927;-69
2022/04/17 06:12:32;;;;;;;;;;;3.90;90.10;;;;;;5064091;28;19952;-69
2022/04/17 06:14:58;;;;;;;;;;;3.90;90.20;;;;;;5063559;28;19908;-69
2022/04/17 06:17:23;;;;;;;;;;;4.00;89.20;;;;;;5064226;28;19915;-69
2022/04/17 06:19:49;;;;;;;;;;;4.10;89.70;;;;;;5082041;28;19908;-67
2022/04/17 06:22:15;;;;;;;;;;;4.10;89.30;;;;;;5081859;28;19940;-67
2022/04/17 06:24:40;;;;;;;;;;;4.20;88.80;;;;;;5082214;28;19924;-69
2022/04/17 06:27:06;;;;;;;;;;;4.20;88.60;;;;;;5081860;28;19912;-69
2022/04/17 06:29:32;;;;;;;;;;;4.50;87.60;;;;;;5082074;28;19908;-68
2022/04/17 06:31:57;;;;;;;;;;;4.50;87.90;;;;;;5081422;28;20160;-69
2022/04/17 06:34:23;;;;;;;;;;;4.60;88.20;;;;;;5063951;28;19912;-67
2022/04/17 06:36:49;;;;;;;;;;;4.60;87.30;;;;;;5081905;28;19909;-67
2022/04/17 06:39:14;;;;;;;;;;;4.70;87.20;;;;;;5081762;28;19940;-69
2022/04/17 06:41:40;;;;;;;;;;;4.80;86.90;;;;;;5081557;28;19912;-66
2022/04/17 06:44:06;;;;;;;;;;;4.80;87.10;;;;;;5061452;28;19909;-67
2022/04/17 06:46:32;;;;;;;;;;;4.90;86.90;;;;;;5081673;28;19908;-66
2022/04/17 06:48:58;;;;;;;;;;;5.00;86.80;;;;;;5081896;28;20115;-68
2022/04/17 06:51:25;;;;;;;;;;;5.20;86.40;;;;;;5081354;28;19944;-67
2022/04/17 06:53:52;;;;;;;;;;;5.30;86.30;;;;;;5081507;28;19919;-67
2022/04/17 06:56:21;;;;;;;;;;;5.50;85.00;;;;;;5081749;28;19908;-66
2022/04/17 06:58:47;;;;;;;;;;;5.50;84.90;;;;;;5081795;28;20049;-70
2022/04/17 07:01:17;;;;;;;;;;;5.60;84.50;;;;;;5080142;28;19951;-69
2022/04/17 07:03:44;;;;;;;;;;;5.70;83.90;;;;;;5063370;28;19958;-65
2022/04/17 07:06:10;;;;;;;;;;;5.80;83.30;;;;;;5063160;28;19957;-65
2022/04/17 07:08:35;;;;;;;;;;;6.00;82.50;;;;;;5081876;28;20065;-65
2022/04/17 07:11:01;;;;;;;;;;;6.20;82.70;;;;;;5081583;28;19980;-65
2022/04/17 07:13:27;;;;;;;;;;;6.30;80.60;;;;;;5081602;28;19916;-65
2022/04/17 07:15:52;;;;;;;;;;;6.40;80.50;;;;;;5078948;28;19915;-65
2022/04/17 07:18:18;;;;;;;;;;;6.50;79.30;;;;;;5081607;28;19954;-65
2022/04/17 07:20:44;;;;;;;;;;;6.60;79.60;;;;;;5081361;28;19909;-65
2022/04/17 07:23:10;;;;;;;;;;;6.60;79.00;;;;;;5081487;28;19919;-65
2022/04/17 07:25:36;;;;;;;;;;;6.70;78.50;;;;;;5081520;28;20144;-66
2022/04/17 07:28:02;;;;;;;;;;;6.80;78.20;;;;;;5081391;28;20205;-65
2022/04/17 07:30:32;;;;;;;;;;;7.00;75.80;;;;;;5081078;28;19928;-65
2022/04/17 07:32:59;;;;;;;;;;;7.20;73.80;;;;;;5081281;28;19916;-65
2022/04/17 07:35:25;;;;;;;;;;;7.50;72.50;;;;;;5081275;28;19931;-65
2022/04/17 07:37:52;;;;;;;;;;;7.50;72.40;;;;;;5081394;28;19923;-65
2022/04/17 07:40:19;;;;;;;;;;;7.60;71.80;;;;;;5081039;28;19916;-65
2022/04/17 07:42:45;;;;;;;;;;;7.60;72.90;;;;;;5081167;28;19940;-65
2022/04/17 07:45:11;;;;;;;;;;;7.80;73.10;;;;;;5080375;28;20265;-65
2022/04/17 07:47:37;;;;;;;;;;;7.90;73.10;;;;;;5083658;28;19908;-65
2022/04/17 07:50:07;;;;;;;;;;;7.90;71.70;;;;;;5085120;28;19916;-66
2022/04/17 07:52:35;;;;;;;;;;;8.10;69.50;;;;;;5084270;28;20200;-69
2022/04/17 07:55:02;;;;;;;;;;;8.20;69.10;;;;;;5085013;28;19909;-70
2022/04/17 07:57:28;;;;;;;;;;;8.20;69.60;;;;;;5084225;28;19909;-69
2022/04/17 07:59:55;;;;;;;;;;;8.20;69.90;;;;;;5083768;28;19915;-65
2022/04/17 08:02:39;;;;;;;;;;;8.30;71.70;;;;;;5084677;28;19916;-66
2022/04/17 08:05:06;;;;;;;;;;;8.40;71.10;;;;;;5066393;28;20302;-67
2022/04/17 08:07:32;;;;;;;;;;;8.40;71.30;;;;;;5084407;28;19908;-68
2022/04/17 08:09:57;;;;;;;;;;;8.50;71.00;;;;;;5066839;28;19916;-69
2022/04/17 08:12:23;;;;;;;;;;;8.60;71.10;;;;;;5083438;28;19914;-68
2022/04/17 08:14:48;;;;;;;;;;;8.90;68.80;;;;;;5081989;28;19970;-69
2022/04/17 08:17:14;;;;;;;;;;;9.00;63.10;;;;;;5084020;28;20107;-69
2022/04/17 08:19:40;;;;;;;;;;;9.10;64.40;;;;;;5083615;28;19979;-68
2022/04/17 08:22:06;;;;;;;;;;;9.20;63.80;;;;;;5066217;28;19979;-68
2022/04/17 08:24:31;;;;;;;;;;;9.20;62.90;;;;;;5049476;28;19908;-70
2022/04/17 08:27:00;;;;;;;;;;;9.50;64.40;;;;;;5083838;28;19909;-70
2022/04/17 08:29:26;;;;;;;;;;;9.60;63.30;;;;;;5049096;28;19971;-70
2022/04/17 08:31:51;;;;;;;;;;;9.70;62.00;;;;;;5082958;28;20352;-70
2022/04/17 08:34:17;;;;;;;;;;;9.80;60.90;;;;;;5083142;28;20188;-71
2022/04/17 08:36:43;;;;;;;;;;;9.70;59.30;;;;;;5083461;28;19908;-71
2022/04/17 08:39:08;;;;;;;;;;;9.90;59.90;;;;;;5083346;28;19916;-71
2022/04/17 08:41:34;;;;;;;;;;;10.00;58.80;;;;;;5082978;28;20126;-71
2022/04/17 08:44:00;;;;;;;;;;;10.10;57.60;;;;;;5065464;28;20146;-66
2022/04/17 08:46:26;;;;;;;;;;;10.40;56.70;;;;;;5082642;28;20183;-66
2022/04/17 08:48:51;;;;;;;;;;;10.20;56.90;;;;;;5084239;28;19931;-67
2022/04/17 08:51:18;;;;;;;;;;;10.30;55.90;;;;;;5083685;28;20022;-67
2022/04/17 08:53:43;;;;;;;;;;;10.30;56.00;;;;;;5083955;28;20028;-67
2022/04/17 08:56:09;;;;;;;;;;;10.20;56.00;;;;;;5066034;28;19988;-66
2022/04/17 08:58:35;;;;;;;;;;;10.20;56.80;;;;;;5065194;28;19909;-66
2022/04/17 09:01:01;;;;;;;;;;;10.50;57.80;;;;;;5064656;28;19976;-66
2022/04/17 09:03:26;;;;;;;;;;;10.70;56.80;;;;;;5084148;28;20001;-66
2022/04/17 09:05:53;;;;;;;;;;;10.70;56.20;;;;;;5065748;28;20138;-66
2022/04/17 09:08:21;;;;;;;;;;;10.80;57.80;;;;;;5048939;28;19928;-66
2022/04/17 09:10:59;;;;;;;;;;;10.90;54.90;;;;;;5072415;28;19912;-67
2022/04/17 09:13:32;;;;;;;;;;;10.90;56.00;;;;;;5074568;28;20231;-66
2022/04/17 09:15:58;;;;;;;;;;;11.00;54.20;;;;;;5072831;28;19915;-66
2022/04/17 09:18:27;;;;;;;;;;;11.10;55.50;;;;;;5077700;28;19920;-66
2022/04/17 09:20:53;;;;;;;;;;;11.20;55.40;;;;;;5083070;28;19912;-67
2022/04/17 09:23:35;;;;;;;;;;;11.40;52.50;;;;;;5082195;28;20223;-66
2022/04/17 09:26:01;;;;;;;;;;;11.50;51.70;;;;;;5062491;28;20274;-66
2022/04/17 09:28:38;;;;;;;;;;;11.40;50.90;;;;;;5065291;28;19909;-66
2022/04/17 09:31:10;;;;;;;;;;;11.30;53.30;;;;;;5082694;28;19908;-66
2022/04/17 09:33:37;;;;;;;;;;;11.30;53.80;;;;;;5083379;28;20124;-68
2022/04/17 09:36:03;;;;;;;;;;;11.50;59.80;;;;;;5065622;28;19928;-68
2022/04/17 09:38:32;;;;;;;;;;;11.70;55.70;;;;;;5083417;28;19909;-68
2022/04/17 09:41:05;;;;;;;;;;;11.80;55.60;;;;;;5065306;28;19909;-66
2022/04/17 09:43:35;;;;;;;;;;;11.80;55.10;;;;;;5082613;28;19935;-65
2022/04/17 09:46:08;;;;;;;;;;;12.00;63.40;;;;;;5065084;28;20010;-65
2022/04/17 09:48:39;;;;;;;;;;;12.40;58.30;;;;;;5063053;28;20147;-68
2022/04/17 09:51:24;;;;;;;;;;;12.60;58.00;;;;;;5062850;28;19959;-68
2022/04/17 09:53:56;;;;;;;;;;;12.80;50.60;;;;;;5063926;28;19919;-65
2022/04/17 09:56:32;;;;;;;;;;;12.90;49.50;;;;;;5062719;28;19908;-65
2022/04/17 09:58:59;;;;;;;;;;;13.10;50.80;;;;;;5063117;28;19913;-65
2022/04/17 10:01:26;;;;;;;;;;;13.10;52.40;;;;;;5041807;28;19909;-65
2022/04/17 10:03:51;;;;;;;;;;;13.40;50.20;;;;;;5048235;28;19908;-64
2022/04/17 10:06:17;;;;;;;;;;;13.70;47.50;;;;;;5064927;28;19915;-68
2022/04/17 10:08:44;;;;;;;;;;;13.80;49.10;;;;;;5047931;28;19964;-66
2022/04/17 10:11:12;;;;;;;;;;;13.90;51.30;;;;;;5082044;28;20267;-65
2022/04/17 10:13:38;;;;;;;;;;;14.10;49.80;;;;;;5064821;28;19984;-65
2022/04/17 10:16:04;;;;;;;;;;;14.50;49.20;;;;;;5046064;28;19947;-65
2022/04/17 10:18:33;;;;;;;;;;;14.70;50.00;;;;;;5047892;28;19946;-65
2022/04/17 10:20:59;;;;;;;;;;;14.90;45.50;;;;;;5081967;28;19939;-65
2022/04/17 10:23:26;;;;;;;;;;;14.90;46.70;;;;;;5081867;28;19934;-65
2022/04/17 10:25:53;;;;;;;;;;;15.00;47.30;;;;;;5082138;28;19955;-64
2022/04/17 10:28:19;;;;;;;;;;;15.20;45.80;;;;;;5082144;28;19916;-65
2022/04/17 10:31:05;;;;;;;;;;;15.20;43.90;;;;;;5063652;28;19915;-65
2022/04/17 10:33:44;;;;;;;;;;;15.30;44.70;;;;;;5063884;28;19920;-64
2022/04/17 10:36:18;;;;;;;;;;;15.10;43.60;;;;;;5065490;28;20146;-65
2022/04/17 10:39:03;;;;;;;;;;;15.20;44.10;;;;;;5082041;28;19908;-65
2022/04/17 10:41:29;;;;;;;;;;;15.30;43.00;;;;;;5065545;28;20102;-66
2022/04/17 10:43:56;;;;;;;;;;;15.30;45.70;;;;;;5064203;28;19916;-65
2022/04/17 10:46:22;;;;;;;;;;;15.50;43.80;;;;;;5080950;28;19915;-65
2022/04/17 10:48:49;;;;;;;;;;;15.50;43.90;;;;;;5081981;28;19931;-66
2022/04/17 10:51:24;;;;;;;;;;;15.60;43.40;;;;;;5081631;28;20204;-64
2022/04/17 10:54:03;;;;;;;;;;;15.60;40.60;;;;;;5081941;28;20200;-64
2022/04/17 10:56:34;;;;;;;;;;;15.50;39.90;;;;;;5082264;28;20096;-64
2022/04/17 10:59:05;;;;;;;;;;;15.60;39.70;;;;;;5082033;28;19932;-64
2022/04/17 11:02:08;;;;;;;;;;;15.70;35.20;;;;;;5080889;28;20196;-65
2022/04/17 11:04:40;;;;;;;;;;;15.60;36.40;;;;;;5082064;28;19986;-64
2022/04/17 11:07:06;;;;;;;;;;;15.50;37.50;;;;;;5064010;28;19909;-65
2022/04/17 11:09:42;;;;;;;;;;;15.00;36.70;;;;;;5081901;28;19915;-64
2022/04/17 11:12:29;;;;;;;;;;;15.10;37.20;;;;;;5081622;28;19971;-64
2022/04/17 11:15:17;;;;;;;;;;;15.20;38.40;;;;;;5081535;28;19979;-64
2022/04/17 11:17:43;;;;;;;;;;;15.30;39.00;;;;;;5081791;28;19939;-64
2022/04/17 11:20:09;;;;;;;;;;;15.80;36.60;;;;;;5081808;28;19916;-64
2022/04/17 11:22:35;;;;;;;;;;;15.80;38.00;;;;;;5066320;28;20222;-64
2022/04/17 11:25:09;;;;;;;;;;;16.20;38.10;;;;;;5085892;28;19908;-64
2022/04/17 11:27:45;;;;;;;;;;;16.40;37.00;;;;;;5085562;28;20138;-70
2022/04/17 11:30:13;;;;;;;;;;;16.60;38.40;;;;;;5086088;28;20115;-66
2022/04/17 11:32:39;;;;;;;;;;;16.80;36.50;;;;;;5085607;28;20199;-65
2022/04/17 11:35:06;;;;;;;;;;;16.90;34.20;;;;;;5085692;28;19916;-65
2022/04/17 11:37:31;;;;;;;;;;;16.80;34.70;;;;;;5085581;28;19908;-65
2022/04/17 11:39:58;;;;;;;;;;;16.70;34.80;;;;;;5085681;28;20259;-65
2022/04/17 11:42:28;;;;;;;;;;;16.70;37.20;;;;;;5085257;28;19916;-65
2022/04/17 11:44:53;;;;;;;;;;;17.00;35.80;;;;;;5085612;28;19914;-65
2022/04/17 11:47:20;;;;;;;;;;;17.20;34.50;;;;;;5085255;28;19924;-65
2022/04/17 11:49:47;;;;;;;;;;;17.40;36.20;;;;;;5085368;28;19915;-65
2022/04/17 11:52:14;;;;;;;;;;;17.70;35.80;;;;;;5085004;28;20219;-65
2022/04/17 11:54:40;;;;;;;;;;;17.70;35.40;;;;;;5085425;28;19984;-65
2022/04/17 11:57:06;;;;;;;;;;;18.00;34.20;;;;;;5085206;28;19981;-66
2022/04/17 11:59:51;;;;;;;;;;;18.20;34.70;;;;;;5085308;28;19908;-66
2022/04/17 12:02:21;;;;;;;;;;;18.30;34.20;;;;;;5084120;28;19966;-65
2022/04/17 12:04:48;;;;;;;;;;;18.30;32.50;;;;;;5085189;28;19909;-65
2022/04/17 12:07:19;;;;;;;;;;;18.10;32.00;;;;;;5085496;28;20115;-65
2022/04/17 12:09:46;;;;;;;;;;;18.20;32.60;;;;;;5085083;28;19963;-65
2022/04/17 12:12:16;;;;;;;;;;;18.20;31.80;;;;;;5084766;28;20204;-65
2022/04/17 12:14:42;;;;;;;;;;;18.60;32.00;;;;;;5085179;28;19919;-65
2022/04/17 12:17:08;;;;;;;;;;;19.00;30.60;;;;;;5084859;28;20100;-65
2022/04/17 12:19:34;;;;;;;;;;;19.10;30.40;;;;;;5084941;28;19915;-65
2022/04/17 12:22:12;;;;;;;;;;;19.20;30.60;;;;;;5084506;28;19924;-65
2022/04/17 12:24:43;;;;;;;;;;;19.50;31.70;;;;;;5068809;28;20065;-66
2022/04/17 12:27:09;;;;;;;;;;;19.90;29.00;;;;;;5084914;28;19908;-66
2022/04/17 12:29:38;;;;;;;;;;;20.20;30.80;;;;;;5084921;28;20167;-66
2022/04/17 12:32:15;;;;;;;;;;;20.20;29.20;;;;;;5066102;28;19950;-66
2022/04/17 12:34:45;;;;;;;;;;;21.20;29.80;;;;;;5067252;28;19912;-66
2022/04/17 12:37:20;;;;;;;;;;;21.80;28.90;;;;;;5067348;28;19979;-66
2022/04/17 12:39:45;;;;;;;;;;;22.00;27.80;;;;;;5084438;28;19943;-66
2022/04/17 12:42:16;;;;;;;;;;;23.50;26.60;;;;;;5066189;28;19987;-66
2022/04/17 12:44:41;;;;;;;;;;;23.50;26.30;;;;;;5084327;28;19968;-65
2022/04/17 12:47:11;;;;;;;;;;;23.00;26.50;;;;;;5084102;28;20229;-66
2022/04/17 12:49:37;;;;;;;;;;;22.40;26.50;;;;;;5084375;28;20025;-65
2022/04/17 12:52:03;;;;;;;;;;;21.80;25.80;;;;;;5083714;28;20000;-65
2022/04/17 12:54:32;;;;;;;;;;;21.40;25.80;;;;;;5066106;28;19984;-64
2022/04/17 12:57:05;;;;;;;;;;;21.10;25.50;;;;;;5084114;28;19916;-65
2022/04/17 12:59:50;;;;;;;;;;;21.10;26.90;;;;;;5084118;28;20166;-66
2022/04/17 13:02:17;;;;;;;;;;;22.60;25.10;;;;;;5083485;28;19916;-66
2022/04/17 13:04:46;;;;;;;;;;;23.50;24.80;;;;;;5083973;28;19908;-66
2022/04/17 13:07:16;;;;;;;;;;;24.00;24.20;;;;;;5083930;28;19996;-66
2022/04/17 13:09:48;;;;;;;;;;;23.80;24.30;;;;;;5083952;28;19935;-66
2022/04/17 13:12:28;;;;;;;;;;;24.30;23.50;;;;;;5083504;28;19909;-66
2022/04/17 13:14:55;;;;;;;;;;;25.10;23.80;;;;;;5083876;28;19928;-66
2022/04/17 13:17:21;;;;;;;;;;;25.20;24.00;;;;;;5083689;28;19975;-66
2022/04/17 13:19:46;;;;;;;;;;;26.20;23.50;;;;;;5083809;28;19910;-66
2022/04/17 13:22:12;;;;;;;;;;;27.20;24.20;;;;;;5083208;28;19986;-66
2022/04/17 13:24:38;;;;;;;;;;;28.40;22.60;;;;;;5083725;28;19927;-66
2022/04/17 13:27:04;;;;;;;;;;;29.30;22.70;;;;;;5049129;28;19916;-67
2022/04/17 13:29:30;;;;;;;;;;;30.40;21.60;;;;;;5083579;28;19983;-66
2022/04/17 13:31:55;;;;;;;;;;;31.40;22.30;;;;;;5082878;28;20317;-66
2022/04/17 13:34:21;;;;;;;;;;;32.00;22.00;;;;;;5065415;28;19945;-66
2022/04/17 13:36:47;;;;;;;;;;;33.70;21.00;;;;;;5083441;28;19920;-66
2022/04/17 13:39:15;;;;;;;;;;;33.10;21.40;;;;;;5065437;28;19919;-67
2022/04/17 13:41:40;;;;;;;;;;;32.70;21.40;;;;;;5083079;28;19909;-66
2022/04/17 13:44:08;;;;;;;;;;;33.00;20.50;;;;;;5082337;28;20257;-66
2022/04/17 13:46:33;;;;;;;;;;;33.50;20.30;;;;;;5082926;28;19908;-66
2022/04/17 13:49:00;;;;;;;;;;;33.80;20.20;;;;;;5083062;28;20211;-66
2022/04/17 13:51:26;;;;;;;;;;;32.40;20.60;;;;;;5082726;28;20207;-67
2022/04/17 13:53:51;;;;;;;;;;;32.10;20.60;;;;;;5064846;28;19950;-65
2022/04/17 13:56:17;;;;;;;;;;;32.10;20.30;;;;;;5082805;28;20208;-66
2022/04/17 13:58:46;;;;;;;;;;;31.50;20.40;;;;;;5064978;28;19944;-66
2022/04/17 14:01:12;;;;;;;;;;;32.10;20.20;;;;;;5081455;28;19916;-66
2022/04/17 14:03:41;;;;;;;;;;;30.90;20.50;;;;;;5082542;28;19912;-66
2022/04/17 14:06:07;;;;;;;;;;;31.70;19.90;;;;;;5082511;28;19927;-66
2022/04/17 14:08:33;;;;;;;;;;;32.00;20.30;;;;;;5064739;28;19908;-66
2022/04/17 14:10:59;;;;;;;;;;;31.50;21.00;;;;;;5082421;28;19984;-66
2022/04/17 14:13:24;;;;;;;;;;;32.30;21.10;;;;;;5064761;28;19912;-66
2022/04/17 14:15:50;;;;;;;;;;;32.10;20.20;;;;;;5064507;28;19909;-66
2022/04/17 14:18:16;;;;;;;;;;;33.00;19.70;;;;;;5082471;28;19908;-66
2022/04/17 14:20:42;;;;;;;;;;;32.60;19.40;;;;;;5082120;28;20008;-66
2022/04/17 14:23:08;;;;;;;;;;;31.70;20.90;;;;;;5082192;28;20107;-66
2022/04/17 14:25:34;;;;;;;;;;;33.30;19.40;;;;;;5082253;28;19915;-66
2022/04/17 14:28:00;;;;;;;;;;;33.50;19.50;;;;;;5082281;28;19914;-66
2022/04/17 14:30:26;;;;;;;;;;;33.80;19.30;;;;;;5081923;28;19908;-66
2022/04/17 14:32:52;;;;;;;;;;;33.20;19.50;;;;;;5081860;28;20219;-66
2022/04/17 14:35:17;;;;;;;;;;;31.20;20.30;;;;;;5082243;28;19908;-66